createdAt,value
2019-03-30T00:01:11.821Z,99.90
2019-03-30T00:03:40.254Z,99.90
2019-03-30T00:06:08.782Z,99.90
2019-03-30T00:08:37.265Z,99.90
2019-03-30T00:11:05.715Z,99.90
2019-03-30T00:13:34.209Z,99.90
2019-03-30T00:16:02.765Z,99.90
2019-03-30T00:18:31.195Z,99.90
2019-03-30T00:20:59.632Z,99.90
2019-03-30T00:23:28.095Z,99.90
2019-03-30T00:25:56.557Z,99.90
2019-03-30T00:28:24.988Z,99.90
2019-03-30T00:30:53.471Z,99.90
2019-03-30T00:33:21.938Z,99.90
2019-03-30T00:35:50.789Z,99.90
2019-03-30T00:38:19.237Z,99.90
2019-03-30T00:40:47.670Z,99.90
2019-03-30T00:43:16.116Z,99.90
2019-03-30T00:45:44.606Z,99.90
2019-03-30T00:48:13.041Z,99.90
2019-03-30T00:50:41.474Z,99.90
2019-03-30T00:53:09.954Z,99.90
2019-03-30T00:55:38.395Z,99.90
2019-03-30T00:58:07.103Z,99.90
2019-03-30T01:00:35.569Z,99.90
2019-03-30T01:03:04.005Z,99.90
2019-03-30T01:05:32.515Z,99.90
2019-03-30T01:08:00.962Z,99.90
2019-03-30T01:10:29.400Z,99.90
2019-03-30T01:12:57.826Z,99.90
2019-03-30T01:15:26.294Z,99.90
2019-03-30T01:17:54.735Z,99.90
2019-03-30T01:20:23.166Z,99.90
2019-03-30T01:22:51.898Z,99.90
2019-03-30T01:25:20.646Z,99.90
2019-03-30T01:27:49.078Z,99.90
2019-03-30T01:30:23.424Z,99.90
2019-03-30T01:32:47.764Z,99.90
2019-03-30T01:35:16.651Z,99.90
2019-03-30T01:37:45.268Z,99.90
2019-03-30T01:40:13.764Z,99.90
2019-03-30T01:42:42.198Z,99.90
2019-03-30T01:45:10.854Z,99.90
2019-03-30T01:47:39.293Z,99.90
2019-03-30T01:50:17.160Z,99.90
2019-03-30T01:52:39.762Z,99.90
2019-03-30T01:55:08.537Z,99.90
2019-03-30T01:57:36.968Z,99.90
2019-03-30T02:00:09.560Z,99.90
2019-03-30T02:02:38.592Z,99.90
2019-03-30T02:05:07.670Z,99.90
2019-03-30T02:07:36.302Z,99.90
2019-03-30T02:10:06.282Z,99.90
2019-03-30T02:12:34.714Z,99.90
2019-03-30T02:15:03.430Z,99.90
2019-03-30T02:17:32.143Z,99.90
2019-03-30T02:20:00.651Z,99.90
2019-03-30T02:22:29.361Z,99.90
2019-03-30T02:24:57.794Z,99.90
2019-03-30T02:27:26.231Z,99.90
2019-03-30T02:29:54.702Z,99.90
2019-03-30T02:32:23.140Z,99.90
2019-03-30T02:34:51.576Z,99.90
2019-03-30T02:37:20.175Z,99.90
2019-03-30T02:39:48.644Z,99.90
2019-03-30T02:42:17.080Z,99.90
2019-03-30T02:44:45.530Z,99.90
2019-03-30T02:47:13.968Z,99.90
2019-03-30T02:49:42.404Z,99.90
2019-03-30T02:52:10.984Z,99.90
2019-03-30T02:54:39.421Z,99.90
2019-03-30T02:57:07.849Z,99.90
2019-03-30T02:59:36.340Z,99.90
2019-03-30T03:02:04.851Z,99.90
2019-03-30T03:04:33.347Z,99.90
2019-03-30T03:07:02.183Z,99.90
2019-03-30T03:09:30.685Z,99.90
2019-03-30T03:11:59.388Z,99.90
2019-03-30T03:14:27.945Z,99.90
2019-03-30T03:16:56.545Z,99.90
2019-03-30T03:19:25.408Z,99.90
2019-03-30T03:21:53.952Z,99.90
2019-03-30T03:24:22.409Z,99.90
2019-03-30T03:26:51.282Z,99.90
2019-03-30T03:29:19.839Z,99.90
2019-03-30T03:31:48.271Z,99.90
2019-03-30T03:34:16.703Z,99.90
2019-03-30T03:36:45.247Z,99.90
2019-03-30T03:39:13.687Z,99.90
2019-03-30T03:41:42.195Z,99.90
2019-03-30T03:44:10.750Z,99.90
2019-03-30T03:46:39.185Z,99.90
2019-03-30T03:49:07.623Z,99.90
2019-03-30T03:51:36.402Z,99.90
2019-03-30T03:54:04.960Z,99.90
2019-03-30T03:56:35.651Z,99.90
2019-03-30T03:59:06.400Z,99.90
2019-03-30T04:01:35.814Z,99.90
2019-03-30T04:04:07.384Z,99.90
2019-03-30T04:06:39.168Z,99.90
2019-03-30T04:09:07.745Z,99.90
2019-03-30T04:11:39.498Z,99.90
2019-03-30T04:14:09.335Z,99.90
2019-03-30T04:16:37.767Z,99.90
2019-03-30T04:19:06.227Z,99.90
2019-03-30T04:21:43.679Z,99.90
2019-03-30T04:24:05.147Z,99.90
2019-03-30T04:29:01.857Z,99.90
2019-03-30T04:31:30.372Z,99.90
2019-03-30T04:33:58.808Z,99.90
2019-03-30T04:36:27.257Z,99.90
2019-03-30T04:38:55.787Z,99.90
2019-03-30T04:41:24.504Z,99.90
2019-03-30T04:43:52.970Z,99.90
2019-03-30T04:46:21.405Z,99.90
2019-03-30T04:48:50.192Z,99.90
2019-03-30T04:51:18.894Z,99.90
2019-03-30T04:53:47.331Z,99.90
2019-03-30T04:56:15.769Z,99.90
2019-03-30T04:58:44.218Z,99.90
2019-03-30T05:01:12.658Z,99.90
2019-03-30T05:03:41.312Z,99.90
2019-03-30T05:06:09.832Z,99.90
2019-03-30T05:08:38.288Z,99.90
2019-03-30T05:11:06.715Z,99.90
2019-03-30T05:13:35.178Z,99.90
2019-03-30T05:16:03.968Z,99.90
2019-03-30T05:18:32.754Z,99.90
2019-03-30T05:21:01.237Z,99.90
2019-03-30T05:23:29.676Z,99.90
2019-03-30T05:25:58.107Z,99.90
2019-03-30T05:28:26.794Z,99.90
2019-03-30T05:30:55.216Z,99.90
2019-03-30T05:33:23.648Z,99.90
2019-03-30T05:35:52.186Z,99.90
2019-03-30T05:38:20.619Z,99.90
2019-03-30T05:40:49.055Z,99.90
2019-03-30T05:43:17.757Z,99.90
2019-03-30T05:45:46.255Z,99.90
2019-03-30T05:48:14.695Z,99.90
2019-03-30T05:50:43.142Z,99.90
2019-03-30T05:53:11.577Z,99.90
2019-03-30T05:55:40.282Z,99.90
2019-03-30T05:58:08.815Z,99.90
2019-03-30T06:00:37.323Z,99.90
2019-03-30T06:03:05.754Z,99.90
2019-03-30T06:05:34.592Z,99.90
2019-03-30T06:08:03.021Z,99.90
2019-03-30T06:10:31.467Z,99.90
2019-03-30T06:12:59.954Z,99.90
2019-03-30T06:15:28.392Z,99.90
2019-03-30T06:17:56.822Z,99.90
2019-03-30T06:20:26.145Z,99.90
2019-03-30T06:22:54.584Z,99.90
2019-03-30T06:25:23.034Z,99.90
2019-03-30T06:27:51.627Z,99.90
2019-03-30T06:30:26.462Z,99.90
2019-03-30T06:32:55.541Z,99.90
2019-03-30T06:35:24.090Z,99.90
2019-03-30T06:37:52.600Z,99.90
2019-03-30T06:40:21.098Z,99.90
2019-03-30T06:42:49.616Z,99.90
2019-03-30T06:45:18.118Z,99.90
2019-03-30T06:47:46.549Z,99.90
2019-03-30T06:50:16.084Z,99.90
2019-03-30T06:52:56.982Z,99.90
2019-03-30T06:55:14.754Z,99.90
2019-03-30T06:57:43.279Z,99.90
2019-03-30T07:00:12.355Z,99.90
2019-03-30T07:02:41.960Z,99.90
2019-03-30T07:05:11.163Z,99.90
2019-03-30T07:07:41.903Z,99.90
2019-03-30T07:10:10.679Z,99.90
2019-03-30T07:12:40.881Z,99.90
2019-03-30T07:15:10.154Z,99.90
2019-03-30T07:17:41.677Z,99.90
2019-03-30T07:20:13.250Z,99.90
2019-03-30T07:22:41.691Z,99.90
2019-03-30T07:25:10.196Z,99.90
2019-03-30T07:27:38.665Z,99.90
2019-03-30T07:30:08.295Z,99.90
2019-03-30T07:32:36.735Z,99.90
2019-03-30T07:35:06.633Z,99.90
2019-03-30T07:37:35.071Z,99.90
2019-03-30T07:40:04.644Z,99.90
2019-03-30T07:42:33.202Z,99.90
2019-03-30T07:45:01.635Z,99.90
2019-03-30T07:47:30.066Z,99.90
2019-03-30T07:49:58.654Z,99.90
2019-03-30T07:52:27.401Z,99.90
2019-03-30T07:54:55.833Z,99.90
2019-03-30T07:57:24.308Z,99.90
2019-03-30T07:59:52.744Z,99.90
2019-03-30T08:02:21.298Z,99.90
2019-03-30T08:04:49.770Z,99.90
2019-03-30T08:07:18.222Z,99.90
2019-03-30T08:09:46.727Z,99.90
2019-03-30T08:12:15.216Z,99.90
2019-03-30T08:14:45.301Z,99.90
2019-03-30T08:17:13.991Z,99.90
2019-03-30T08:19:42.461Z,99.90
2019-03-30T08:22:11.052Z,99.90
2019-03-30T08:24:39.948Z,99.90
2019-03-30T08:27:08.519Z,99.90
2019-03-30T08:29:36.958Z,99.90
2019-03-30T08:32:05.463Z,99.90
2019-03-30T08:34:34.063Z,99.90
2019-03-30T08:37:02.497Z,99.90
2019-03-30T08:39:30.922Z,99.90
2019-03-30T08:41:59.511Z,99.90
2019-03-30T08:44:27.942Z,99.90
2019-03-30T08:46:56.638Z,99.90
2019-03-30T08:49:25.213Z,99.90
2019-03-30T08:51:53.707Z,99.90
2019-03-30T08:54:22.151Z,99.90
2019-03-30T08:56:50.611Z,99.90
2019-03-30T08:59:19.038Z,99.90
2019-03-30T09:58:25.168Z,99.90
2019-03-30T10:00:53.621Z,99.90
2019-03-30T10:03:22.106Z,99.90
2019-03-30T10:05:50.549Z,99.90
2019-03-30T10:08:19.004Z,99.90
2019-03-30T10:10:47.484Z,99.90
2019-03-30T10:13:15.927Z,99.90
2019-03-30T10:15:44.362Z,99.90
2019-03-30T10:18:13.046Z,99.90
2019-03-30T10:20:41.487Z,99.90
2019-03-30T10:23:09.926Z,99.90
2019-03-30T10:25:38.409Z,99.90
2019-03-30T10:28:06.916Z,99.90
2019-03-30T10:30:35.454Z,99.90
2019-03-30T10:33:03.909Z,99.90
2019-03-30T10:35:32.367Z,99.90
2019-03-30T10:38:00.871Z,99.90
2019-03-30T10:40:29.315Z,99.90
2019-03-30T10:42:57.749Z,99.90
2019-03-30T10:45:26.543Z,99.90
2019-03-30T10:47:55.001Z,99.90
2019-03-30T10:50:23.442Z,99.90
2019-03-30T10:52:51.882Z,99.90
2019-03-30T10:55:20.689Z,99.90
2019-03-30T10:57:49.124Z,99.90
2019-03-30T11:00:35.210Z,99.90
2019-03-30T11:03:04.137Z,99.90
2019-03-30T11:05:32.565Z,99.90
2019-03-30T11:08:01.224Z,99.90
2019-03-30T11:10:29.673Z,99.90
2019-03-30T11:12:58.404Z,99.90
2019-03-30T11:15:27.194Z,99.90
2019-03-30T11:17:55.642Z,99.90
2019-03-30T11:20:24.074Z,99.90
2019-03-30T11:22:52.599Z,99.90
2019-03-30T11:25:21.356Z,99.90
2019-03-30T11:27:49.799Z,99.90
2019-03-30T11:30:18.630Z,99.90
2019-03-30T11:32:47.087Z,99.90
2019-03-30T11:35:15.514Z,99.90
2019-03-30T11:37:44.004Z,99.90
2019-03-30T11:40:12.583Z,99.90
2019-03-30T11:42:41.026Z,99.90
2019-03-30T11:45:09.997Z,99.90
2019-03-30T11:47:38.431Z,99.90
2019-03-30T11:50:07.618Z,99.90
2019-03-30T11:52:36.096Z,99.90
2019-03-30T11:55:20.660Z,99.90
2019-03-30T11:57:36.839Z,99.90
2019-03-30T12:00:07.199Z,99.90
2019-03-30T12:02:35.638Z,99.90
2019-03-30T12:05:07.942Z,99.90
2019-03-30T12:07:36.402Z,99.90
2019-03-30T12:10:06.449Z,99.90
2019-03-30T12:12:37.305Z,99.30
2019-03-30T12:15:07.374Z,95.40
2019-03-30T12:17:35.898Z,91.40
2019-03-30T12:20:06.724Z,90.20
2019-03-30T12:22:35.208Z,90.90
2019-03-30T12:25:04.184Z,80.80
2019-03-30T12:27:32.615Z,68.70
2019-03-30T12:30:01.142Z,67.80
2019-03-30T12:32:29.579Z,63.20
2019-03-30T12:34:58.008Z,68.30
2019-03-30T12:37:26.756Z,66.40
2019-03-30T12:39:58.286Z,62.30
2019-03-30T12:42:25.905Z,57.70
2019-03-30T12:44:54.362Z,55.10
2019-03-30T12:47:22.799Z,58.60
2019-03-30T12:49:51.230Z,60.50
2019-03-30T12:52:19.862Z,61.50
2019-03-30T12:54:48.310Z,63.20
2019-03-30T12:57:16.831Z,65.20
2019-03-30T12:59:45.294Z,69.40
2019-03-30T13:02:13.727Z,72.80
2019-03-30T13:04:43.263Z,69.20
2019-03-30T13:07:11.906Z,62.60
2019-03-30T13:09:40.371Z,66.00
2019-03-30T13:12:08.966Z,66.30
2019-03-30T13:14:37.745Z,66.60
2019-03-30T13:17:06.236Z,67.20
2019-03-30T13:19:34.768Z,65.10
2019-03-30T13:22:03.234Z,67.30
2019-03-30T13:24:31.673Z,69.40
2019-03-30T13:27:00.170Z,70.10
2019-03-30T13:29:28.639Z,73.20
2019-03-30T13:31:57.071Z,71.40
2019-03-30T13:34:25.510Z,67.90
2019-03-30T13:36:54.790Z,60.30
2019-03-30T13:39:23.593Z,67.20
2019-03-30T13:41:52.037Z,70.80
2019-03-30T13:44:20.496Z,68.70
2019-03-30T13:46:49.358Z,60.50
2019-03-30T13:49:17.808Z,58.10
2019-03-30T13:51:46.262Z,59.40
2019-03-30T13:54:14.750Z,56.60
2019-03-30T13:56:43.612Z,57.10
2019-03-30T13:59:12.412Z,57.60
2019-03-30T14:01:40.842Z,56.30
2019-03-30T14:04:09.271Z,51.80
2019-03-30T14:06:38.986Z,49.40
2019-03-30T14:09:07.572Z,49.50
2019-03-30T14:11:36.055Z,49.10
2019-03-30T14:14:04.957Z,42.80
2019-03-30T14:16:33.378Z,44.20
2019-03-30T14:19:01.953Z,42.00
2019-03-30T14:21:30.919Z,40.50
2019-03-30T14:23:59.346Z,40.30
2019-03-30T14:26:31.523Z,42.00
2019-03-30T14:28:58.037Z,42.80
2019-03-30T14:31:26.477Z,40.90
2019-03-30T14:33:54.911Z,36.30
2019-03-30T14:36:23.525Z,38.60
2019-03-30T14:41:20.335Z,35.20
2019-03-30T14:43:48.812Z,35.60
2019-03-30T14:46:17.821Z,37.10
2019-03-30T14:48:46.336Z,34.70
2019-03-30T14:51:14.846Z,33.90
2019-03-30T14:53:43.279Z,33.50
2019-03-30T14:56:11.714Z,37.40
2019-03-30T14:58:40.229Z,37.70
2019-03-30T15:01:08.764Z,37.80
2019-03-30T15:03:37.202Z,34.90
2019-03-30T15:06:07.113Z,33.60
2019-03-30T15:08:35.824Z,31.70
2019-03-30T15:11:04.510Z,33.40
2019-03-30T15:13:32.967Z,31.80
2019-03-30T15:16:01.472Z,33.40
2019-03-30T15:18:29.932Z,32.90
2019-03-30T15:20:58.386Z,34.40
2019-03-30T15:23:27.347Z,32.20
2019-03-30T15:25:55.868Z,32.70
2019-03-30T15:28:24.325Z,32.90
2019-03-30T15:30:52.763Z,32.80
2019-03-30T15:33:21.194Z,32.10
2019-03-30T15:35:49.932Z,31.80
2019-03-30T15:38:18.358Z,32.90
2019-03-30T15:40:46.799Z,30.90
2019-03-30T15:43:15.281Z,30.40
2019-03-30T15:45:43.754Z,31.50
2019-03-30T15:48:12.260Z,30.50
2019-03-30T15:50:40.733Z,29.70
2019-03-30T15:53:09.166Z,31.70
2019-03-30T15:55:37.672Z,31.40
2019-03-30T15:58:06.148Z,30.00
2019-03-30T16:00:34.574Z,30.00
2019-03-30T16:03:03.095Z,31.80
2019-03-30T16:05:31.621Z,32.50
2019-03-30T16:08:00.119Z,32.80
2019-03-30T16:10:28.618Z,33.50
2019-03-30T16:12:57.080Z,35.10
2019-03-30T16:15:25.605Z,33.90
2019-03-30T16:17:54.039Z,35.10
2019-03-30T16:20:22.767Z,35.40
2019-03-30T16:22:51.204Z,36.00
2019-03-30T16:25:19.636Z,35.30
2019-03-30T16:27:48.147Z,35.20
2019-03-30T16:30:17.014Z,36.90
2019-03-30T16:32:45.523Z,36.70
2019-03-30T16:35:13.994Z,36.40
2019-03-30T16:37:42.428Z,35.40
2019-03-30T16:40:10.995Z,37.50
2019-03-30T16:42:39.437Z,37.40
2019-03-30T16:45:08.304Z,37.70
2019-03-30T16:47:36.735Z,38.80
2019-03-30T16:50:07.593Z,38.10
2019-03-30T16:52:36.018Z,40.80
2019-03-30T16:55:04.821Z,40.80
2019-03-30T16:57:43.265Z,41.60
2019-03-30T17:00:05.340Z,42.20
2019-03-30T17:02:33.849Z,41.10
2019-03-30T17:05:02.408Z,41.40
2019-03-30T17:07:30.835Z,41.10
2019-03-30T17:09:59.264Z,43.30
2019-03-30T17:12:28.155Z,43.50
2019-03-30T17:14:56.682Z,43.70
2019-03-30T17:17:25.115Z,46.00
2019-03-30T17:19:53.612Z,47.70
2019-03-30T17:22:22.040Z,47.80
2019-03-30T17:24:50.473Z,50.40
2019-03-30T17:27:18.930Z,52.10
2019-03-30T17:29:47.367Z,52.50
2019-03-30T17:32:15.878Z,52.60
2019-03-30T17:34:44.757Z,53.50
2019-03-30T17:37:14.648Z,54.00
2019-03-30T17:39:43.294Z,54.60
2019-03-30T17:42:11.994Z,56.30
2019-03-30T17:44:40.426Z,57.60
2019-03-30T17:47:08.858Z,57.30
2019-03-30T17:49:37.505Z,58.70
2019-03-30T17:52:05.947Z,58.10
2019-03-30T17:54:34.373Z,59.10
2019-03-30T17:57:02.907Z,59.70
2019-03-30T17:59:31.333Z,60.30
2019-03-30T18:01:59.770Z,60.90
2019-03-30T18:04:28.519Z,62.70
2019-03-30T18:06:57.038Z,62.50
2019-03-30T18:09:25.557Z,62.40
2019-03-30T18:11:54.122Z,63.20
2019-03-30T18:14:22.554Z,63.80
2019-03-30T18:16:50.990Z,64.30
2019-03-30T18:19:19.459Z,66.40
2019-03-30T18:21:47.896Z,65.50
2019-03-30T18:24:16.431Z,66.40
2019-03-30T18:26:45.200Z,68.20
2019-03-30T18:29:13.629Z,69.40
2019-03-30T18:31:42.495Z,70.20
2019-03-30T18:34:11.111Z,71.40
2019-03-30T18:36:40.856Z,72.30
2019-03-30T18:39:10.296Z,73.10
2019-03-30T18:41:38.941Z,75.00
2019-03-30T18:44:07.674Z,75.00
2019-03-30T18:46:36.112Z,75.30
2019-03-30T18:49:04.678Z,77.20
2019-03-30T18:51:33.110Z,76.50
2019-03-30T18:54:02.293Z,76.70
2019-03-30T18:56:31.111Z,77.40
2019-03-30T18:58:59.560Z,76.10
2019-03-30T19:01:27.995Z,76.10
2019-03-30T19:03:56.899Z,77.90
2019-03-30T19:06:25.340Z,77.70
2019-03-30T19:08:53.890Z,77.30
2019-03-30T19:11:22.363Z,77.70
2019-03-30T19:13:51.555Z,78.00
2019-03-30T19:16:20.122Z,79.20
2019-03-30T19:18:48.765Z,79.50
2019-03-30T19:21:17.202Z,80.70
2019-03-30T19:23:45.642Z,82.80
2019-03-30T19:26:14.106Z,84.80
2019-03-30T19:28:55.682Z,86.40
2019-03-30T19:31:12.702Z,88.40
2019-03-30T19:33:41.171Z,90.10
2019-03-30T19:36:10.196Z,91.30
2019-03-30T19:38:38.730Z,91.60
2019-03-30T19:41:07.975Z,91.70
2019-03-30T19:43:36.411Z,93.00
2019-03-30T19:46:05.025Z,94.10
2019-03-30T19:48:36.779Z,93.80
2019-03-30T19:51:03.650Z,94.50
2019-03-30T19:53:32.088Z,95.60
2019-03-30T19:56:00.637Z,96.40
2019-03-30T19:58:29.084Z,97.10
2019-03-30T20:00:57.591Z,98.30
2019-03-30T20:03:26.062Z,99.00
2019-03-30T20:05:54.503Z,99.20
2019-03-30T20:08:22.943Z,99.90
2019-03-30T20:10:51.462Z,99.90
2019-03-30T20:13:20.198Z,99.90
2019-03-30T20:15:48.916Z,99.90
2019-03-30T20:18:17.683Z,99.90
2019-03-30T20:20:46.190Z,99.90
2019-03-30T20:23:14.697Z,99.90
2019-03-30T20:25:43.175Z,99.90
2019-03-30T20:28:11.611Z,99.90
2019-03-30T20:30:40.051Z,99.90
2019-03-30T20:33:08.803Z,99.90
2019-03-30T20:35:37.306Z,99.90
2019-03-30T20:38:06.112Z,99.90
2019-03-30T20:40:34.810Z,99.90
2019-03-30T20:43:03.254Z,99.90
2019-03-30T20:45:31.703Z,99.90
2019-03-30T20:48:00.255Z,99.90
2019-03-30T20:50:28.711Z,99.90
2019-03-30T20:52:57.150Z,99.90
2019-03-30T20:55:25.726Z,99.90
2019-03-30T20:57:54.239Z,99.90
2019-03-30T21:00:22.679Z,99.90
2019-03-30T21:02:51.549Z,99.90
2019-03-30T21:05:20.035Z,99.90
2019-03-30T21:07:48.502Z,99.90
2019-03-30T21:10:17.212Z,99.90
2019-03-30T21:12:45.652Z,99.90
2019-03-30T21:15:14.327Z,99.90
2019-03-30T21:17:42.823Z,99.90
2019-03-30T21:20:11.537Z,99.90
2019-03-30T21:22:39.973Z,99.90
2019-03-30T21:25:08.575Z,99.90
2019-03-30T21:27:37.045Z,99.90
2019-03-30T21:30:08.427Z,99.90
2019-03-30T21:32:37.098Z,99.90
2019-03-30T21:35:07.176Z,99.90
2019-03-30T21:37:35.618Z,99.90
2019-03-30T21:40:05.815Z,99.90
2019-03-30T21:42:34.349Z,99.90
2019-03-30T21:45:02.899Z,99.90
2019-03-30T21:47:31.646Z,99.90
2019-03-30T21:50:00.537Z,99.90
2019-03-30T21:52:29.061Z,99.90
2019-03-30T21:54:58.143Z,99.90
2019-03-30T21:57:27.030Z,99.90
2019-03-30T22:00:09.093Z,99.90
2019-03-30T22:02:25.882Z,99.90
2019-03-30T22:04:54.815Z,99.90
2019-03-30T22:07:23.252Z,99.90
2019-03-30T22:09:52.106Z,99.90
2019-03-30T22:12:20.717Z,99.90
2019-03-30T22:14:49.150Z,99.90
2019-03-30T22:17:17.852Z,99.90
2019-03-30T22:19:46.330Z,99.90
2019-03-30T22:22:15.078Z,99.90
2019-03-30T22:24:43.732Z,99.90
2019-03-30T22:27:12.274Z,99.90
2019-03-30T22:29:40.844Z,99.90
2019-03-30T22:32:09.399Z,99.90
2019-03-30T22:34:37.918Z,99.90
2019-03-30T22:37:06.660Z,99.90
2019-03-30T22:39:35.414Z,99.90
2019-03-30T22:42:03.923Z,99.90
2019-03-30T22:44:32.354Z,99.90
2019-03-30T22:47:00.837Z,99.90
2019-03-30T22:49:29.619Z,99.90
2019-03-30T22:51:58.068Z,99.90
2019-03-30T22:54:26.526Z,99.90
2019-03-30T22:56:54.966Z,99.90
2019-03-30T22:59:23.404Z,99.90
2019-03-30T23:01:51.892Z,99.90
2019-03-30T23:04:20.395Z,99.90
2019-03-30T23:06:48.840Z,99.90
2019-03-30T23:09:17.302Z,99.90
2019-03-30T23:11:45.739Z,99.90
2019-03-30T23:14:14.177Z,99.90
2019-03-30T23:16:42.643Z,99.90
2019-03-30T23:19:11.068Z,99.90
2019-03-30T23:21:39.551Z,99.90
2019-03-30T23:24:08.267Z,99.90
2019-03-30T23:26:37.627Z,99.90
2019-03-30T23:29:06.065Z,99.90
2019-03-30T23:31:34.505Z,99.90
2019-03-30T23:34:02.958Z,99.90
2019-03-30T23:36:31.381Z,99.90
2019-03-30T23:38:59.859Z,99.90
2019-03-30T23:41:28.362Z,99.90
2019-03-30T23:43:56.801Z,99.90
2019-03-30T23:46:26.419Z,99.90
2019-03-30T23:48:54.859Z,99.90
2019-03-30T23:51:23.368Z,99.90
2019-03-30T23:53:51.858Z,99.90
2019-03-30T23:56:21.439Z,99.90
2019-03-30T23:58:50.737Z,99.90
